Terminal Aerodrome Forecast
Issued by NWS

Home | Current Version | Previous Version | Graphics & Text | Print | Product List | Glossary On
Versions: 1 2 3 4 5 6 7 8 9 10 11 12 13
506
FTUS43 KICT 090228 AAA
TAFCNU
TAF AMD
KCNU 090228Z 0902/0924 31012G20KT P6SM SCT200
     FM091600 33019G27KT P6SM SCT250=

USA.gov is the U.S. government's official web portal to all federal, state and local government web resources and services.